createdAt,value
2019-02-14T00:00:17.149Z,22.60
2019-02-14T00:01:17.096Z,23.20
2019-02-14T00:02:17.086Z,21.60
2019-02-14T00:03:17.083Z,25.00
2019-02-14T00:04:17.067Z,21.40
2019-02-14T00:05:17.061Z,21.80
2019-02-14T00:06:17.076Z,21.60
2019-02-14T00:07:17.032Z,22.20
2019-02-14T00:08:17.027Z,25.20
2019-02-14T00:09:17.014Z,21.80
2019-02-14T00:10:17.008Z,21.10
2019-02-14T00:11:17.072Z,25.20
2019-02-14T00:12:17.009Z,23.80
2019-02-14T00:13:16.965Z,23.90
2019-02-14T00:14:16.960Z,25.60
2019-02-14T00:15:16.959Z,26.00
2019-02-14T00:16:16.933Z,23.30
2019-02-14T00:17:16.942Z,20.80
2019-02-14T00:18:16.943Z,23.10
2019-02-14T00:19:16.936Z,24.50
2019-02-14T00:20:16.901Z,23.70
2019-02-14T00:21:16.882Z,25.80
2019-02-14T00:22:16.878Z,26.10
2019-02-14T00:23:16.865Z,22.60
2019-02-14T00:24:16.851Z,23.50
2019-02-14T00:25:16.873Z,24.20
2019-02-14T00:26:16.830Z,23.20
2019-02-14T00:27:16.819Z,24.30
2019-02-14T00:28:16.829Z,23.80
2019-02-14T00:29:16.796Z,25.80
2019-02-14T00:30:16.812Z,22.80
2019-02-14T00:31:16.774Z,27.50
2019-02-14T00:32:16.769Z,26.70
2019-02-14T00:33:16.777Z,26.70
2019-02-14T00:34:16.745Z,26.40
2019-02-14T00:35:24.562Z,26.20
2019-02-14T00:36:17.729Z,28.90
2019-02-14T00:37:16.711Z,25.30
2019-02-14T00:38:16.704Z,25.00
2019-02-14T00:39:16.694Z,25.10
2019-02-14T00:40:16.683Z,26.70
2019-02-14T00:41:16.697Z,25.10
2019-02-14T00:42:16.658Z,26.70
2019-02-14T00:43:16.652Z,25.50
2019-02-14T00:44:16.641Z,27.00
2019-02-14T00:45:16.633Z,24.10
2019-02-14T00:46:16.639Z,23.00
2019-02-14T00:47:16.613Z,22.70
2019-02-14T00:48:16.596Z,24.90
2019-02-14T00:49:16.613Z,24.80
2019-02-14T00:50:16.574Z,25.80
2019-02-14T00:51:16.562Z,24.20
2019-02-14T00:52:16.559Z,28.20
2019-02-14T00:53:16.540Z,25.80
2019-02-14T00:54:16.537Z,24.60
2019-02-14T00:55:16.550Z,26.10
2019-02-14T00:56:16.513Z,25.60
2019-02-14T00:57:16.503Z,26.70
2019-02-14T00:58:16.486Z,30.40
2019-02-14T00:59:16.474Z,23.20
2019-02-14T01:00:16.489Z,22.50
2019-02-14T01:01:16.454Z,25.70
2019-02-14T01:02:16.445Z,24.20
2019-02-14T01:03:16.433Z,24.70
2019-02-14T01:04:16.431Z,23.30
2019-02-14T01:05:16.599Z,24.40
2019-02-14T01:06:16.432Z,23.20
2019-02-14T01:07:16.392Z,23.70
2019-02-14T01:08:16.411Z,23.90
2019-02-14T01:09:16.368Z,27.00
2019-02-14T01:10:16.361Z,23.30
2019-02-14T01:11:16.379Z,26.10
2019-02-14T01:12:16.348Z,24.80
2019-02-14T01:13:16.344Z,22.50
2019-02-14T01:14:16.317Z,24.50
2019-02-14T01:15:16.304Z,28.00
2019-02-14T01:16:16.300Z,25.70
2019-02-14T01:17:16.316Z,24.70
2019-02-14T01:18:16.306Z,24.40
2019-02-14T01:19:16.265Z,23.10
2019-02-14T01:20:16.260Z,24.10
2019-02-14T01:21:16.252Z,24.00
2019-02-14T01:22:16.282Z,24.10
2019-02-14T01:23:16.224Z,23.70
2019-02-14T01:24:16.229Z,26.30
2019-02-14T01:25:16.198Z,24.20
2019-02-14T01:26:16.189Z,24.50
2019-02-14T01:27:16.179Z,24.90
2019-02-14T01:28:16.174Z,25.60
2019-02-14T01:29:16.193Z,27.10
2019-02-14T01:30:16.147Z,26.70
2019-02-14T01:31:16.135Z,25.10
2019-02-14T01:32:16.126Z,24.50
2019-02-14T01:33:16.121Z,26.30
2019-02-14T01:34:16.104Z,25.50
2019-02-14T01:35:16.133Z,25.00
2019-02-14T01:36:16.083Z,27.30
2019-02-14T01:37:16.073Z,24.10
2019-02-14T01:38:16.058Z,22.30
2019-02-14T01:39:16.049Z,28.90
2019-02-14T01:40:16.042Z,26.50
2019-02-14T01:41:16.062Z,25.70
2019-02-14T01:42:16.021Z,26.00
2019-02-14T01:43:16.013Z,22.80
2019-02-14T01:44:16.004Z,22.60
2019-02-14T01:45:15.985Z,24.90
2019-02-14T01:46:15.977Z,21.90
2019-02-14T01:47:15.995Z,22.80
2019-02-14T01:48:15.967Z,23.70
2019-02-14T01:49:15.948Z,21.50
2019-02-14T01:50:15.932Z,21.60
2019-02-14T01:51:15.923Z,24.60
2019-02-14T01:52:15.936Z,24.00
2019-02-14T01:53:15.900Z,25.40
2019-02-14T01:54:15.889Z,21.40
2019-02-14T01:55:15.877Z,28.50
2019-02-14T01:56:15.870Z,22.20
2019-02-14T01:57:15.887Z,21.50
2019-02-14T01:58:15.881Z,23.00
2019-02-14T01:59:15.840Z,21.20
2019-02-14T02:00:15.831Z,20.30
2019-02-14T02:01:15.817Z,20.30
2019-02-14T02:02:15.804Z,22.10
2019-02-14T02:03:15.815Z,21.30
2019-02-14T02:04:15.815Z,21.50
2019-02-14T02:05:15.771Z,20.90
2019-02-14T02:06:15.759Z,22.20
2019-02-14T02:07:15.749Z,21.80
2019-02-14T02:08:22.788Z,21.60
2019-02-14T02:09:15.744Z,23.80
2019-02-14T02:10:15.719Z,21.10
2019-02-14T02:11:15.709Z,24.80
2019-02-14T02:12:15.700Z,22.60
2019-02-14T02:13:15.688Z,23.50
2019-02-14T02:14:15.695Z,22.60
2019-02-14T02:15:15.662Z,23.30
2019-02-14T02:16:15.679Z,25.30
2019-02-14T02:17:15.651Z,21.70
2019-02-14T02:18:15.630Z,21.40
2019-02-14T02:19:15.628Z,21.70
2019-02-14T02:20:15.609Z,20.80
2019-02-14T02:21:15.619Z,21.90
2019-02-14T02:22:15.591Z,21.90
2019-02-14T02:23:15.586Z,20.80
2019-02-14T02:24:15.569Z,22.20
2019-02-14T02:25:15.569Z,24.80
2019-02-14T02:26:15.566Z,23.40
2019-02-14T02:27:15.542Z,22.00
2019-02-14T02:28:15.531Z,22.00
2019-02-14T02:29:15.519Z,18.10
2019-02-14T02:30:15.538Z,21.40
2019-02-14T02:31:15.500Z,20.30
2019-02-14T02:32:15.480Z,20.30
2019-02-14T02:33:15.493Z,22.00
2019-02-14T02:34:15.458Z,18.40
2019-02-14T02:35:15.451Z,20.90
2019-02-14T02:36:15.464Z,22.60
2019-02-14T02:37:15.429Z,20.60
2019-02-14T02:38:15.418Z,20.30
2019-02-14T02:39:15.408Z,18.10
2019-02-14T02:40:15.402Z,19.50
2019-02-14T02:41:15.415Z,20.80
2019-02-14T02:42:15.401Z,19.10
2019-02-14T02:43:15.385Z,20.00
2019-02-14T02:44:15.354Z,18.00
2019-02-14T02:45:15.350Z,19.90
2019-02-14T02:46:15.364Z,19.50
2019-02-14T02:47:15.324Z,20.60
2019-02-14T02:48:15.318Z,18.80
2019-02-14T02:49:15.301Z,21.40
2019-02-14T02:50:15.288Z,22.60
2019-02-14T02:51:15.304Z,22.40
2019-02-14T02:52:15.267Z,20.10
2019-02-14T02:53:15.255Z,21.80
2019-02-14T02:54:15.270Z,21.40
2019-02-14T02:55:15.235Z,20.60
2019-02-14T02:56:15.222Z,21.60
2019-02-14T02:57:15.216Z,21.70
2019-02-14T02:58:15.204Z,21.10
2019-02-14T02:59:15.226Z,22.60
2019-02-14T03:00:15.181Z,19.40
2019-02-14T03:01:15.172Z,21.70
2019-02-14T03:02:15.167Z,21.60
2019-02-14T03:03:15.162Z,20.20
2019-02-14T03:04:15.170Z,20.30
2019-02-14T03:05:15.163Z,21.90
2019-02-14T03:06:15.118Z,23.00
2019-02-14T03:07:15.107Z,21.70
2019-02-14T03:08:15.094Z,19.00
2019-02-14T03:09:15.084Z,20.80
2019-02-14T03:10:15.134Z,20.00
2019-02-14T03:11:15.068Z,19.20
2019-02-14T03:12:15.054Z,20.90
2019-02-14T03:13:15.045Z,20.00
2019-02-14T03:14:15.030Z,20.90
2019-02-14T03:15:15.064Z,23.10
2019-02-14T03:16:15.049Z,21.10
2019-02-14T03:17:15.001Z,21.40
2019-02-14T03:18:14.993Z,21.70
2019-02-14T03:19:14.980Z,21.00
2019-02-14T03:20:14.972Z,24.40
2019-02-14T03:21:14.958Z,22.70
2019-02-14T03:22:14.967Z,21.70
2019-02-14T03:23:14.936Z,20.30
2019-02-14T03:24:14.924Z,21.80
2019-02-14T03:25:14.915Z,21.50
2019-02-14T03:26:14.944Z,20.10
2019-02-14T03:27:14.895Z,24.20
2019-02-14T03:28:14.884Z,23.90
2019-02-14T03:29:14.871Z,21.10
2019-02-14T03:30:14.863Z,21.00
2019-02-14T03:31:14.849Z,22.90
2019-02-14T03:32:14.863Z,21.00
2019-02-14T03:33:14.832Z,21.50
2019-02-14T03:34:14.820Z,19.00
2019-02-14T03:35:14.806Z,18.70
2019-02-14T03:36:19.271Z,21.50
2019-02-14T03:37:14.815Z,21.20
2019-02-14T03:38:14.776Z,21.40
2019-02-14T03:39:14.764Z,22.30
2019-02-14T03:40:14.759Z,23.60
2019-02-14T03:41:14.750Z,21.60
2019-02-14T03:42:14.762Z,20.30
2019-02-14T03:43:14.721Z,19.30
2019-02-14T03:44:14.709Z,19.30
2019-02-14T03:45:14.704Z,21.80
2019-02-14T03:46:14.692Z,22.40
2019-02-14T03:47:14.680Z,18.40
2019-02-14T03:48:14.699Z,20.10
2019-02-14T03:49:14.659Z,20.10
2019-02-14T03:50:14.648Z,22.70
2019-02-14T03:51:14.636Z,21.90
2019-02-14T03:52:14.628Z,21.10
2019-02-14T03:53:14.647Z,21.20
2019-02-14T03:54:14.644Z,19.20
2019-02-14T03:55:14.593Z,20.60
2019-02-14T03:56:14.585Z,22.80
2019-02-14T03:57:14.575Z,22.60
2019-02-14T03:58:14.562Z,21.20
2019-02-14T03:59:14.558Z,19.60
2019-02-14T04:00:14.553Z,21.50
2019-02-14T04:01:14.530Z,21.30
2019-02-14T04:02:14.525Z,23.20
2019-02-14T04:03:14.511Z,21.30
2019-02-14T04:04:14.500Z,23.90
2019-02-14T04:05:14.506Z,21.30
2019-02-14T04:06:14.476Z,22.00
2019-02-14T04:07:14.471Z,20.80
2019-02-14T04:08:14.456Z,21.70
2019-02-14T04:09:14.445Z,21.70
2019-02-14T04:10:14.465Z,22.80
2019-02-14T04:11:14.455Z,21.70
2019-02-14T04:12:14.415Z,21.30
2019-02-14T04:13:14.402Z,20.80
2019-02-14T04:14:14.395Z,19.70
2019-02-14T04:15:14.404Z,21.80
2019-02-14T04:16:14.410Z,21.50
2019-02-14T04:17:14.360Z,22.50
2019-02-14T04:18:14.349Z,22.50
2019-02-14T04:19:14.338Z,20.90
2019-02-14T04:20:14.334Z,24.50
2019-02-14T04:21:14.322Z,20.80
2019-02-14T04:22:14.339Z,18.60
2019-02-14T04:23:14.296Z,18.60
2019-02-14T04:24:14.287Z,19.70
2019-02-14T04:25:14.285Z,17.80
2019-02-14T04:26:14.264Z,20.20
2019-02-14T04:27:14.275Z,18.40
2019-02-14T04:28:14.246Z,21.20
2019-02-14T04:29:14.258Z,20.80
2019-02-14T04:30:14.226Z,19.50
2019-02-14T04:31:14.214Z,21.40
2019-02-14T04:32:14.225Z,20.90
2019-02-14T04:33:14.222Z,22.40
2019-02-14T04:34:14.188Z,22.40
2019-02-14T04:35:14.169Z,21.10
2019-02-14T04:36:14.162Z,20.60
2019-02-14T04:37:14.148Z,19.00
2019-02-14T04:38:14.169Z,19.60
2019-02-14T04:39:14.127Z,20.50
2019-02-14T04:40:14.116Z,20.40
2019-02-14T04:41:14.107Z,18.10
2019-02-14T04:42:15.129Z,19.60
2019-02-14T04:43:14.083Z,22.30
2019-02-14T04:44:14.076Z,18.40
2019-02-14T04:45:14.068Z,20.40
2019-02-14T04:46:14.086Z,19.20
2019-02-14T04:47:14.048Z,19.80
2019-02-14T04:48:14.036Z,19.40
2019-02-14T04:49:14.045Z,17.50
2019-02-14T04:50:14.018Z,20.10
2019-02-14T04:51:13.997Z,17.10
2019-02-14T04:52:14.019Z,18.70
2019-02-14T04:53:13.985Z,20.10
2019-02-14T04:54:13.966Z,18.30
2019-02-14T04:55:14.026Z,18.70
2019-02-14T04:56:13.948Z,16.70
2019-02-14T04:57:13.940Z,18.40
2019-02-14T04:58:13.926Z,20.00
2019-02-14T04:59:13.915Z,17.10
2019-02-14T05:00:13.929Z,16.80
2019-02-14T05:01:13.901Z,15.50
2019-02-14T05:02:13.884Z,21.10
2019-02-14T05:03:13.870Z,17.40
2019-02-14T05:04:13.860Z,17.00
2019-02-14T05:05:13.849Z,17.90
2019-02-14T05:06:13.872Z,18.20
2019-02-14T05:07:13.829Z,18.40
2019-02-14T05:08:13.817Z,16.40
2019-02-14T05:09:13.829Z,18.40
2019-02-14T05:10:13.802Z,16.30
2019-02-14T05:11:13.787Z,20.60
2019-02-14T05:12:13.780Z,18.50
2019-02-14T05:13:13.766Z,17.20
2019-02-14T05:14:13.794Z,16.80
2019-02-14T05:15:13.774Z,18.50
2019-02-14T05:16:13.733Z,18.40
2019-02-14T05:17:13.723Z,16.60
2019-02-14T05:18:13.713Z,16.30
2019-02-14T05:19:13.703Z,20.40
2019-02-14T05:20:13.720Z,17.30
2019-02-14T05:21:13.680Z,19.30
2019-02-14T05:22:13.675Z,18.20
2019-02-14T05:23:13.660Z,20.20
2019-02-14T05:24:13.673Z,17.80
2019-02-14T05:25:13.639Z,16.20
2019-02-14T05:26:13.626Z,15.90
2019-02-14T05:27:13.616Z,16.10
2019-02-14T05:28:13.635Z,16.70
2019-02-14T05:29:13.596Z,17.00
2019-02-14T05:30:13.583Z,15.90
2019-02-14T05:31:13.572Z,16.60
2019-02-14T05:32:13.564Z,15.30
2019-02-14T05:33:13.582Z,18.70
2019-02-14T05:34:13.572Z,17.20
2019-02-14T05:35:13.537Z,17.00
2019-02-14T05:36:13.521Z,15.70
2019-02-14T05:37:13.509Z,14.70
2019-02-14T05:38:13.500Z,15.60
2019-02-14T05:39:13.519Z,15.20
2019-02-14T05:40:13.480Z,16.00
2019-02-14T05:41:13.467Z,14.50
2019-02-14T05:42:13.454Z,18.50
2019-02-14T05:43:13.447Z,15.50
2019-02-14T05:44:13.459Z,18.10
2019-02-14T05:45:13.427Z,16.50
2019-02-14T05:46:13.414Z,14.10
2019-02-14T05:47:13.414Z,15.40
2019-02-14T05:48:13.394Z,15.40
2019-02-14T05:49:13.381Z,14.00
2019-02-14T05:50:13.373Z,15.40
2019-02-14T05:51:13.364Z,14.00
2019-02-14T05:52:13.369Z,14.30
2019-02-14T05:53:13.338Z,15.20
2019-02-14T05:54:13.326Z,15.60
2019-02-14T05:55:13.323Z,15.40
2019-02-14T05:56:13.308Z,13.70
2019-02-14T05:57:13.321Z,15.80
2019-02-14T05:58:13.287Z,16.50
2019-02-14T05:59:13.274Z,15.90
2019-02-14T06:00:13.264Z,15.00
2019-02-14T06:01:13.271Z,14.70
2019-02-14T06:02:13.265Z,14.80
2019-02-14T06:03:13.235Z,16.30
2019-02-14T06:04:13.224Z,14.30
2019-02-14T06:05:13.212Z,15.40
2019-02-14T06:06:13.202Z,16.00
2019-02-14T06:07:13.194Z,14.00
2019-02-14T06:08:13.215Z,16.80
2019-02-14T06:09:13.171Z,13.60
2019-02-14T06:10:13.163Z,15.40
2019-02-14T06:11:13.148Z,13.80
2019-02-14T06:12:13.136Z,16.20
2019-02-14T06:13:13.126Z,13.40
2019-02-14T06:14:13.136Z,12.90
2019-02-14T06:15:13.105Z,15.30
2019-02-14T06:16:13.200Z,13.10
2019-02-14T06:17:13.088Z,17.10
2019-02-14T06:18:13.073Z,14.60
2019-02-14T06:19:13.066Z,12.20
2019-02-14T06:20:13.081Z,16.70
2019-02-14T06:21:13.045Z,15.60
2019-02-14T06:22:13.032Z,14.80
2019-02-14T06:23:13.019Z,13.00
2019-02-14T06:24:13.013Z,15.40
2019-02-14T06:25:13.011Z,15.20
2019-02-14T06:26:12.993Z,15.60
2019-02-14T06:27:12.977Z,13.10
2019-02-14T06:28:12.966Z,13.00
2019-02-14T06:29:12.968Z,13.10
2019-02-14T06:30:12.948Z,12.10
2019-02-14T06:31:12.944Z,14.00
2019-02-14T06:32:12.963Z,12.20
2019-02-14T06:33:12.919Z,14.10
2019-02-14T06:34:12.906Z,12.90
2019-02-14T06:35:12.892Z,14.10
2019-02-14T06:36:12.885Z,15.40
2019-02-14T06:37:12.873Z,15.60
2019-02-14T06:38:12.879Z,12.20
2019-02-14T06:39:12.850Z,15.90
2019-02-14T06:40:12.847Z,14.50
2019-02-14T06:41:12.836Z,14.00
2019-02-14T06:42:12.827Z,14.00
2019-02-14T06:43:12.808Z,13.40
2019-02-14T06:44:12.810Z,14.70
2019-02-14T06:45:12.800Z,16.70
2019-02-14T06:46:12.784Z,13.00
2019-02-14T06:47:12.772Z,11.70
2019-02-14T06:48:12.754Z,15.30
2019-02-14T06:49:12.748Z,14.10
2019-02-14T06:50:12.753Z,13.70
2019-02-14T06:51:12.722Z,14.20
2019-02-14T06:52:12.712Z,16.00
2019-02-14T06:53:12.700Z,14.40
2019-02-14T06:54:12.693Z,14.30
2019-02-14T06:55:12.696Z,15.60
2019-02-14T06:56:12.673Z,16.00
2019-02-14T06:57:12.659Z,15.70
2019-02-14T06:58:12.907Z,14.00
2019-02-14T06:59:12.640Z,14.20
2019-02-14T07:00:12.628Z,15.20
2019-02-14T07:01:12.616Z,16.20
2019-02-14T07:02:12.604Z,16.30
2019-02-14T07:03:12.615Z,15.40
2019-02-14T07:04:12.589Z,13.10
2019-02-14T07:05:12.572Z,16.60
2019-02-14T07:06:12.561Z,13.40
2019-02-14T07:07:18.214Z,12.90
2019-02-14T07:08:13.572Z,13.50
2019-02-14T07:09:12.531Z,15.80
2019-02-14T07:10:12.520Z,12.50
2019-02-14T07:11:12.512Z,15.00
2019-02-14T07:12:12.499Z,15.20
2019-02-14T07:13:12.489Z,12.80
2019-02-14T07:14:12.499Z,17.30
2019-02-14T07:15:12.478Z,12.80
2019-02-14T07:16:12.457Z,13.30
2019-02-14T07:17:12.443Z,13.60
2019-02-14T07:18:12.434Z,11.80
2019-02-14T07:19:12.423Z,12.50
2019-02-14T07:20:12.440Z,11.30
2019-02-14T07:21:12.402Z,12.70
2019-02-14T07:22:12.390Z,12.80
2019-02-14T07:23:12.382Z,11.20
2019-02-14T07:24:12.369Z,12.60
2019-02-14T07:25:12.358Z,12.70
2019-02-14T07:26:12.367Z,13.20
2019-02-14T07:27:12.336Z,14.50
2019-02-14T07:28:12.331Z,13.60
2019-02-14T07:29:12.321Z,12.10
2019-02-14T07:30:12.302Z,11.50
2019-02-14T07:31:12.329Z,12.20
2019-02-14T07:32:12.285Z,11.80
2019-02-14T07:33:12.310Z,12.30
2019-02-14T07:34:12.264Z,11.80
2019-02-14T07:35:12.254Z,11.70
2019-02-14T07:36:12.245Z,12.50
2019-02-14T07:37:12.232Z,11.30
2019-02-14T07:38:12.218Z,13.60
2019-02-14T07:39:12.240Z,12.70
2019-02-14T07:40:12.196Z,15.40
2019-02-14T07:41:12.188Z,16.80
2019-02-14T07:42:12.178Z,18.00
2019-02-14T07:43:12.168Z,19.50
2019-02-14T07:44:12.185Z,19.20
2019-02-14T07:45:12.142Z,18.40
2019-02-14T07:46:12.135Z,20.30
2019-02-14T07:47:12.145Z,18.70
2019-02-14T07:48:12.112Z,16.30
2019-02-14T07:49:12.107Z,14.60
2019-02-14T07:50:12.093Z,14.00
2019-02-14T07:51:12.082Z,12.50
2019-02-14T07:52:12.112Z,13.10
2019-02-14T07:53:12.060Z,12.10
2019-02-14T07:54:12.050Z,10.60
2019-02-14T07:55:12.081Z,10.60
2019-02-14T07:56:12.026Z,10.00
2019-02-14T07:57:12.022Z,11.80
2019-02-14T07:58:12.037Z,10.40
2019-02-14T07:59:12.004Z,10.20
2019-02-14T08:00:11.984Z,9.30
2019-02-14T08:01:11.976Z,8.70
2019-02-14T08:02:11.984Z,7.80
2019-02-14T08:03:11.953Z,6.30
2019-02-14T08:04:11.942Z,8.50
2019-02-14T08:05:11.962Z,9.40
2019-02-14T08:06:11.919Z,8.30
2019-02-14T08:07:11.909Z,8.30
2019-02-14T08:08:11.903Z,7.00
2019-02-14T08:09:19.442Z,9.10
2019-02-14T08:10:11.877Z,9.40
2019-02-14T08:11:11.893Z,6.20
2019-02-14T08:12:11.862Z,7.10
2019-02-14T08:13:11.848Z,6.80
2019-02-14T08:14:11.890Z,7.40
2019-02-14T08:15:11.830Z,7.60
2019-02-14T08:16:11.814Z,8.60
2019-02-14T08:17:11.802Z,8.50
2019-02-14T08:18:11.795Z,8.50
2019-02-14T08:19:11.780Z,8.40
2019-02-14T08:20:11.801Z,7.30
2019-02-14T08:21:11.762Z,8.70
2019-02-14T08:22:11.755Z,6.80
2019-02-14T08:23:11.738Z,6.80
2019-02-14T08:24:11.734Z,6.80
2019-02-14T08:25:11.715Z,6.50
2019-02-14T08:26:11.739Z,7.70
2019-02-14T08:27:11.702Z,7.60
2019-02-14T08:28:11.719Z,8.60
2019-02-14T08:29:11.671Z,8.90
2019-02-14T08:30:11.666Z,8.20
2019-02-14T08:31:11.684Z,6.10
2019-02-14T08:32:11.651Z,6.80
2019-02-14T08:33:11.630Z,8.10
2019-02-14T08:34:11.618Z,7.30
2019-02-14T08:35:11.613Z,6.20
2019-02-14T08:36:11.598Z,6.90
2019-02-14T08:37:11.608Z,7.10
2019-02-14T08:38:11.574Z,8.10
2019-02-14T08:39:11.597Z,7.70
2019-02-14T08:40:11.554Z,7.00
2019-02-14T08:41:11.579Z,7.60
2019-02-14T08:42:11.568Z,5.30
2019-02-14T08:43:11.524Z,6.10
2019-02-14T08:44:11.523Z,8.60
2019-02-14T08:45:11.503Z,7.10
2019-02-14T08:46:11.526Z,6.70
2019-02-14T08:47:11.485Z,7.80
2019-02-14T08:48:11.468Z,6.20
2019-02-14T08:49:11.465Z,7.90
2019-02-14T08:50:11.453Z,7.20
2019-02-14T08:51:11.484Z,8.40
2019-02-14T08:52:11.426Z,10.20
2019-02-14T08:53:11.421Z,7.10
2019-02-14T08:54:11.413Z,9.30
2019-02-14T08:55:11.399Z,7.70
2019-02-14T08:56:11.389Z,8.20
2019-02-14T08:57:11.393Z,7.00
2019-02-14T08:58:11.364Z,7.70
2019-02-14T08:59:11.351Z,7.10
2019-02-14T09:00:11.342Z,5.40
2019-02-14T09:01:11.341Z,5.20
2019-02-14T09:02:11.342Z,6.60
2019-02-14T09:03:11.312Z,7.60
2019-02-14T09:04:11.300Z,5.20
2019-02-14T09:05:11.291Z,5.00
2019-02-14T09:06:11.280Z,7.10
2019-02-14T09:07:11.577Z,5.70
2019-02-14T09:08:11.281Z,8.50
2019-02-14T09:09:11.260Z,5.90
2019-02-14T09:10:11.234Z,7.40
2019-02-14T09:11:11.226Z,7.60
2019-02-14T09:12:11.211Z,8.50
2019-02-14T09:13:16.971Z,5.60
2019-02-14T09:14:12.215Z,5.10
2019-02-14T09:15:11.184Z,5.30
2019-02-14T09:16:11.174Z,5.40
2019-02-14T09:17:11.167Z,5.60
2019-02-14T09:18:11.146Z,5.40
2019-02-14T09:19:11.143Z,8.90
2019-02-14T09:20:11.150Z,7.20
2019-02-14T09:21:11.114Z,8.10
2019-02-14T09:22:11.105Z,7.00
2019-02-14T09:23:11.106Z,7.40
2019-02-14T09:24:11.086Z,5.70
2019-02-14T09:25:11.095Z,6.30
2019-02-14T09:26:11.065Z,7.10
2019-02-14T09:27:11.049Z,5.50
2019-02-14T09:28:11.046Z,7.50
2019-02-14T09:29:13.748Z,6.10
2019-02-14T09:30:11.017Z,7.40
2019-02-14T09:31:11.040Z,8.20
2019-02-14T09:32:10.996Z,8.30
2019-02-14T09:33:10.995Z,6.50
2019-02-14T09:34:10.973Z,8.20
2019-02-14T09:35:10.971Z,7.60
2019-02-14T09:36:10.979Z,8.30
2019-02-14T09:37:10.942Z,8.00
2019-02-14T09:38:10.935Z,8.00
2019-02-14T09:39:10.959Z,8.10
2019-02-14T09:40:10.937Z,6.70
2019-02-14T09:41:10.905Z,7.00
2019-02-14T09:42:10.894Z,7.40
2019-02-14T09:43:10.883Z,7.50
2019-02-14T09:44:10.875Z,6.80
2019-02-14T09:45:10.919Z,5.80
2019-02-14T09:46:10.878Z,5.30
2019-02-14T09:47:10.837Z,5.90
2019-02-14T09:48:10.825Z,9.30
2019-02-14T09:49:10.814Z,6.30
2019-02-14T09:50:10.822Z,5.40
2019-02-14T09:51:10.814Z,6.10
2019-02-14T09:52:10.796Z,6.70
2019-02-14T09:53:10.783Z,7.20
2019-02-14T09:54:10.769Z,6.10
2019-02-14T09:55:10.760Z,6.20
2019-02-14T09:56:10.739Z,5.80
2019-02-14T09:57:10.780Z,5.80
2019-02-14T09:58:10.735Z,5.30
2019-02-14T09:59:10.736Z,6.40
2019-02-14T10:00:10.721Z,6.10
2019-02-14T10:01:10.689Z,4.90
2019-02-14T10:02:10.676Z,5.90
2019-02-14T10:03:10.674Z,5.10
2019-02-14T10:04:10.684Z,5.80
2019-02-14T10:05:10.643Z,5.50
2019-02-14T10:06:10.650Z,7.30
2019-02-14T10:07:10.619Z,4.40
2019-02-14T10:08:12.924Z,5.60
2019-02-14T10:09:10.602Z,4.50
2019-02-14T10:10:10.588Z,7.40
2019-02-14T10:11:10.608Z,4.30
2019-02-14T10:12:10.565Z,6.00
2019-02-14T10:13:10.557Z,5.10
2019-02-14T10:14:10.583Z,4.70
2019-02-14T10:15:10.533Z,6.20
2019-02-14T10:16:10.528Z,5.30
2019-02-14T10:17:10.513Z,4.90
2019-02-14T10:18:10.533Z,5.30
2019-02-14T10:19:10.492Z,5.90
2019-02-14T10:20:10.479Z,5.80
2019-02-14T10:21:10.468Z,4.40
2019-02-14T10:22:10.464Z,6.70
2019-02-14T10:23:10.446Z,5.00
2019-02-14T10:24:10.483Z,4.90
2019-02-14T10:25:10.422Z,4.20
2019-02-14T10:26:10.411Z,5.30
2019-02-14T10:27:10.411Z,4.60
2019-02-14T10:28:10.391Z,5.20
2019-02-14T10:29:10.390Z,5.30
2019-02-14T10:30:10.401Z,5.40
2019-02-14T10:31:10.361Z,5.10
2019-02-14T10:32:10.356Z,4.20
2019-02-14T10:33:10.342Z,5.80
2019-02-14T10:34:10.330Z,5.30
2019-02-14T10:35:10.346Z,4.60
2019-02-14T10:36:10.307Z,5.00
2019-02-14T10:37:10.298Z,4.70
2019-02-14T10:38:10.286Z,4.40
2019-02-14T10:39:10.308Z,4.80
2019-02-14T10:40:10.265Z,8.30
2019-02-14T10:41:10.265Z,7.00
2019-02-14T10:42:10.243Z,5.40
2019-02-14T10:43:10.232Z,4.30
2019-02-14T10:44:10.222Z,4.20
2019-02-14T10:45:10.248Z,4.20
2019-02-14T10:46:10.202Z,5.30
2019-02-14T10:47:10.192Z,4.50
2019-02-14T10:48:10.179Z,4.40
2019-02-14T10:49:10.168Z,4.40
2019-02-14T10:50:10.188Z,3.80
2019-02-14T10:51:10.149Z,4.10
2019-02-14T10:52:10.139Z,4.60
2019-02-14T10:53:12.167Z,4.80
2019-02-14T10:54:10.122Z,4.40
2019-02-14T10:55:10.106Z,4.70
2019-02-14T10:56:10.131Z,3.40
2019-02-14T10:57:10.085Z,3.50
2019-02-14T10:58:10.075Z,3.50
2019-02-14T10:59:10.069Z,4.40
2019-02-14T11:00:10.067Z,4.50
2019-02-14T11:01:10.083Z,5.40
2019-02-14T11:02:10.035Z,4.90
2019-02-14T11:03:10.028Z,4.10
2019-02-14T11:04:10.014Z,4.80
2019-02-14T11:05:10.004Z,4.80
2019-02-14T11:06:10.021Z,4.80
2019-02-14T11:07:10.005Z,4.10
2019-02-14T11:08:09.970Z,3.40
2019-02-14T11:09:09.964Z,5.90
2019-02-14T11:10:09.947Z,4.70
2019-02-14T11:11:09.937Z,4.40
2019-02-14T11:12:09.935Z,4.30
2019-02-14T11:13:09.961Z,4.50
2019-02-14T11:14:09.912Z,6.10
2019-02-14T11:15:09.901Z,4.00
2019-02-14T11:16:09.971Z,4.80
2019-02-14T11:17:09.878Z,4.10
2019-02-14T11:18:09.859Z,4.80
2019-02-14T11:19:09.884Z,3.50
2019-02-14T11:20:09.862Z,4.10
2019-02-14T11:21:09.852Z,3.90
2019-02-14T11:22:09.818Z,4.00
2019-02-14T11:23:09.809Z,3.50
2019-02-14T11:24:09.796Z,3.50
2019-02-14T11:25:09.784Z,3.40
2019-02-14T11:26:09.797Z,3.40
2019-02-14T11:27:09.762Z,3.10
2019-02-14T11:28:09.753Z,3.50
2019-02-14T11:29:09.775Z,4.50
2019-02-14T11:30:09.727Z,4.50
2019-02-14T11:31:09.715Z,4.80
2019-02-14T11:32:09.706Z,5.60
2019-02-14T11:33:09.693Z,4.60
2019-02-14T11:34:09.717Z,3.40
2019-02-14T11:35:09.674Z,3.40
2019-02-14T11:36:09.659Z,3.90
2019-02-14T11:37:09.650Z,3.20
2019-02-14T11:38:09.638Z,6.40
2019-02-14T11:39:09.664Z,4.80
2019-02-14T11:40:09.624Z,3.00
2019-02-14T11:41:09.608Z,5.10
2019-02-14T11:42:09.597Z,4.30
2019-02-14T11:43:09.587Z,4.50
2019-02-14T11:44:09.578Z,5.00
2019-02-14T11:45:09.601Z,3.20
2019-02-14T11:46:09.563Z,3.20
2019-02-14T11:47:09.567Z,6.30
2019-02-14T11:48:09.535Z,4.30
2019-02-14T11:49:09.528Z,4.00
2019-02-14T11:50:09.543Z,4.00
2019-02-14T11:51:09.535Z,3.50
2019-02-14T11:52:09.491Z,3.40
2019-02-14T11:53:14.093Z,5.10
2019-02-14T11:54:10.468Z,4.70
2019-02-14T11:55:09.457Z,2.80
2019-02-14T11:56:10.098Z,3.20
2019-02-14T11:57:09.442Z,2.80
2019-02-14T11:58:09.430Z,2.80
2019-02-14T11:59:09.419Z,3.10
2019-02-14T12:00:09.402Z,2.80
2019-02-14T12:01:09.414Z,3.00
2019-02-14T12:02:09.380Z,3.60
2019-02-14T12:03:09.375Z,3.60
2019-02-14T12:04:09.361Z,2.50
2019-02-14T12:05:09.354Z,2.60
2019-02-14T12:06:09.337Z,3.30
2019-02-14T12:07:09.355Z,6.30
2019-02-14T12:08:09.627Z,3.20
2019-02-14T12:09:09.303Z,2.30
2019-02-14T12:10:13.542Z,3.00
2019-02-14T12:11:09.305Z,2.40
2019-02-14T12:12:09.344Z,2.90
2019-02-14T12:13:09.274Z,2.50
2019-02-14T12:14:09.252Z,2.40
2019-02-14T12:15:09.238Z,4.30
2019-02-14T12:16:09.227Z,3.20
2019-02-14T12:17:09.215Z,2.50
2019-02-14T12:18:09.240Z,2.70
2019-02-14T12:19:09.196Z,2.60
2019-02-14T12:20:12.435Z,2.70
2019-02-14T12:21:09.176Z,3.50
2019-02-14T12:22:09.161Z,2.30
2019-02-14T12:23:09.155Z,3.50
2019-02-14T12:24:09.177Z,2.40
2019-02-14T12:25:09.132Z,2.50
2019-02-14T12:26:09.120Z,1.90
2019-02-14T12:27:09.109Z,2.60
2019-02-14T12:28:09.116Z,2.20
2019-02-14T12:29:09.118Z,3.50
2019-02-14T12:30:09.076Z,2.70
2019-02-14T12:31:09.072Z,2.60
2019-02-14T12:32:09.056Z,2.80
2019-02-14T12:33:09.051Z,2.20
2019-02-14T12:34:09.051Z,3.10
2019-02-14T12:35:09.033Z,3.20
2019-02-14T12:36:09.042Z,3.20
2019-02-14T12:37:09.005Z,2.40
2019-02-14T12:38:08.987Z,2.40
2019-02-14T12:39:11.435Z,2.60
2019-02-14T12:40:08.967Z,5.10
2019-02-14T12:41:08.977Z,2.60
2019-02-14T12:42:08.943Z,3.10
2019-02-14T12:43:08.936Z,3.50
2019-02-14T12:44:08.929Z,3.50
2019-02-14T12:45:08.913Z,2.70
2019-02-14T12:46:08.926Z,5.40
2019-02-14T12:47:08.900Z,2.70
2019-02-14T12:48:08.882Z,3.40
2019-02-14T12:49:08.876Z,4.80
2019-02-14T12:50:08.856Z,4.30
2019-02-14T12:51:08.881Z,3.00
2019-02-14T12:52:08.864Z,3.20
2019-02-14T12:53:08.828Z,3.80
2019-02-14T12:54:08.872Z,3.70
2019-02-14T12:55:08.806Z,2.90
2019-02-14T12:56:08.794Z,2.30
2019-02-14T12:57:08.785Z,4.60
2019-02-14T12:58:08.774Z,3.20
2019-02-14T12:59:08.760Z,4.10
2019-02-14T13:00:08.801Z,2.60
2019-02-14T13:01:08.763Z,2.40
2019-02-14T13:02:08.728Z,2.60